KMGE/MGE METAR and TAF weather

Enter ICAO airport designator
Station Type Date Time Source
KMGE METAR 2020/02/19 10:56 UTC NOAA

KMGE 191056Z AUTO 31007KT 10SM OVC005 09/09 A3016 RMK AO2 RAE18DZB18E23 SLP215 P0000 T00910091 $


Station Type Date Time Source
KMGE Decoded METAR 2020/02/19 10:56 UTC NOAA

Marietta / Dobbins Air Force Base, GA, United States (KMGE) 33-55N 084-31W 326M
Feb 19, 2020 - 05:56 AM EST / 2020.02.19 1056 UTC
Wind: from the NW (310 degrees) at 8 MPH (7 KT):0
Visibility: 10 mile(s):0
Sky conditions: overcast
Precipitation last hour: A trace
Temperature: 48.4 F (9.1 C)
Dew Point: 48.4 F (9.1 C)
Relative Humidity: 100%
Pressure (altimeter): 30.16 in. Hg (1021 hPa)
ob: KMGE 191056Z AUTO 31007KT 10SM OVC005 09/09 A3016 RMK AO2 RAE18DZB18E23 SLP215 P0000 T00910091
cycle: 11

Station Type Date Time Source
KMGE TAF 2020/02/19 06:06 UTC NOAA

TAF KMGE 190600Z 1906/2012 VRB06KT 8000 -SHRA OVC006 510013 QNH3010INS
BECMG 1910/1911 VRB06KT 8000 -SHRA BR OVC005 510013 QNH3012INS
BECMG 1920/1921 VRB06KT 9999 NSW BKN020 QNH3025INS
BECMG 2001/2002 08012KT 6000 BR BKN003 QNH3031INS
BECMG 2006/2007 08012KT 6000 BR BKN003 QNH3028INS TX12/1919Z TN06/1912Z

Example: see airport list